Time;durP1;ratioP1;P1;durP2;ratioP2;P2;SDS_P1;SDS_P2;PMS_P1;PMS_P2;Temp;Humidity;BMP_temperature;BMP_pressure;BME280_temperature;BME280_humidity;BME280_pressure;Samples;Min_cycle;Max_cycle;Signal;HPM_P1;HPM_P2
2022/07/01 00:00:18;;;;;;;2.65;2.45;;;;;;;21.80;67.02;97838.63;4974483;28;20054;-92
2022/07/01 00:02:45;;;;;;;3.85;3.47;;;;;;;21.78;67.18;97834.66;4976977;28;20046;-87
2022/07/01 00:05:12;;;;;;;5.30;2.83;;;;;;;21.77;67.32;97839.19;4955892;29;20503;-88
2022/07/01 00:07:38;;;;;;;3.00;2.70;;;;;;;21.83;67.45;97842.59;4965135;28;20078;-89
2022/07/01 00:10:06;;;;;;;3.85;3.10;;;;;;;21.74;67.33;97838.94;4967896;28;20398;-87
2022/07/01 00:12:32;;;;;;;3.67;3.38;;;;;;;21.70;67.62;97848.56;4975923;28;20686;-87
2022/07/01 00:14:59;;;;;;;3.80;3.38;;;;;;;21.60;68.14;97844.13;4958062;28;20050;-88
2022/07/01 00:17:26;;;;;;;3.20;2.72;;;;;;;21.56;67.73;97833.19;4972822;28;20043;-89
2022/07/01 00:19:53;;;;;;;5.40;3.72;;;;;;;21.49;68.20;97839.91;4975216;28;20046;-88
2022/07/01 00:22:19;;;;;;;2.90;2.70;;;;;;;21.58;68.25;97843.56;4972619;28;20047;-89
2022/07/01 00:24:48;;;;;;;3.20;3.00;;;;;;;21.60;68.08;97842.25;4968573;28;20048;-86
2022/07/01 00:27:31;;;;;;;4.00;3.53;;;;;;;21.51;68.29;97849.22;4970694;28;20058;-89
2022/07/01 00:29:58;;;;;;;3.17;2.75;;;;;;;21.56;68.50;97846.53;4987965;28;20163;-94
2022/07/01 00:32:24;;;;;;;4.53;2.67;;;;;;;21.58;68.33;97854.25;4968711;28;20106;-90
2022/07/01 00:34:51;;;;;;;3.50;2.80;;;;;;;21.52;68.62;97853.47;4986301;28;20093;-90
2022/07/01 00:37:18;;;;;;;4.05;3.65;;;;;;;21.46;68.58;97857.25;4976168;28;20047;-89
2022/07/01 00:39:45;;;;;;;4.13;3.80;;;;;;;21.29;69.30;97859.47;4974076;28;20047;-85
2022/07/01 00:42:11;;;;;;;3.85;3.55;;;;;;;21.31;69.34;97874.16;4965710;28;20043;-84
2022/07/01 00:44:38;;;;;;;4.32;3.83;;;;;;;21.20;69.40;97869.09;4967792;28;20479;-86
2022/07/01 00:47:11;;;;;;;4.70;4.30;;;;;;;20.93;70.49;97890.78;4973499;28;20043;-87
2022/07/01 00:49:40;;;;;;;4.18;3.80;;;;;;;20.96;70.90;97883.06;4969876;28;20043;-83
2022/07/01 00:52:09;;;;;;;3.55;3.13;;;;;;;20.88;71.11;97894.28;4962477;28;20046;-92
2022/07/01 00:54:38;;;;;;;5.35;3.65;;;;;;;20.82;71.25;97900.69;4967884;28;20529;-87
2022/07/01 00:57:10;;;;;;;3.45;3.25;;;;;;;20.71;71.51;97907.13;4966802;28;20102;-85
2022/07/01 00:59:39;;;;;;;4.38;3.65;;;;;;;20.62;71.64;97914.03;4970860;28;20043;-92
2022/07/01 01:02:08;;;;;;;7.30;4.20;;;;;;;20.47;71.94;97939.66;4961196;28;20094;-87
2022/07/01 01:04:35;;;;;;;8.80;4.43;;;;;;;20.25;72.49;97934.53;4964437;28;20047;-88
2022/07/01 01:07:03;;;;;;;4.60;4.20;;;;;;;20.14;72.26;97940.91;4975251;28;20043;-86
2022/07/01 01:09:30;;;;;;;4.40;4.05;;;;;;;19.91;72.66;97952.06;4998558;28;20077;-87
2022/07/01 01:11:57;;;;;;;3.60;3.30;;;;;;;19.95;72.60;97942.50;4975270;28;20097;-87
2022/07/01 01:14:25;;;;;;;4.18;3.78;;;;;;;19.91;72.80;97952.88;4963725;28;20110;-89
2022/07/01 01:16:52;;;;;;;4.40;3.58;;;;;;;19.87;72.20;97941.16;4967246;28;20097;-92
2022/07/01 01:19:19;;;;;;;3.83;3.13;;;;;;;19.80;72.34;97948.59;4971087;28;20158;-91
2022/07/01 01:21:47;;;;;;;3.80;3.40;;;;;;;19.76;72.29;97950.97;4968395;28;20074;-88
2022/07/01 01:24:13;;;;;;;5.05;2.95;;;;;;;19.71;71.75;97958.13;4967337;28;20095;-91
2022/07/01 01:26:40;;;;;;;3.22;2.90;;;;;;;19.69;71.93;97965.59;4988432;28;20043;-87
2022/07/01 01:29:08;;;;;;;4.95;3.30;;;;;;;19.48;72.81;97938.88;4954418;29;20047;-86
2022/07/01 01:31:35;;;;;;;2.80;2.60;;;;;;;19.44;72.37;97937.03;4963728;28;20050;-85
2022/07/01 01:34:03;;;;;;;3.50;3.20;;;;;;;19.33;72.89;97968.09;4974827;28;20054;-85
2022/07/01 01:36:30;;;;;;;2.80;2.60;;;;;;;19.47;72.36;97979.03;4971141;28;20102;-89
2022/07/01 01:41:36;;;;;;;2.88;2.58;;;;;;;19.15;73.11;97977.28;4971752;28;20078;-85
2022/07/01 01:44:02;;;;;;;4.20;2.90;;;;;;;18.99;73.22;97955.13;4973376;28;20118;-85
2022/07/01 01:46:30;;;;;;;2.72;2.10;;;;;;;18.98;73.44;97942.13;4972070;28;20418;-85
2022/07/01 01:48:58;;;;;;;2.53;2.33;;;;;;;19.08;73.13;97936.06;4967503;28;20047;-84
2022/07/01 01:51:24;;;;;;;3.33;2.08;;;;;;;19.03;72.95;97926.19;4964409;28;20051;-83
2022/07/01 01:53:51;;;;;;;2.28;2.08;;;;;;;18.97;72.99;97938.66;4964666;28;20138;-84
2022/07/01 01:56:18;;;;;;;3.60;2.20;;;;;;;19.06;72.74;97946.13;4957786;28;20051;-83
2022/07/01 01:58:45;;;;;;;2.00;1.80;;;;;;;19.08;73.06;97946.69;4966312;28;20442;-83
2022/07/01 02:01:13;;;;;;;2.63;2.35;;;;;;;18.87;73.57;97938.59;4961552;28;20054;-85
2022/07/01 02:03:42;;;;;;;2.40;2.20;;;;;;;18.72;73.95;97933.19;4959842;28;20075;-85
2022/07/01 02:06:10;;;;;;;2.00;1.80;;;;;;;18.93;73.94;97950.84;4970898;28;20065;-86
2022/07/01 02:08:38;;;;;;;2.10;1.90;;;;;;;18.90;73.53;97947.91;4971214;28;20097;-83
2022/07/01 02:11:07;;;;;;;2.40;1.98;;;;;;;18.82;73.87;97962.47;4988399;28;20097;-87
2022/07/01 02:13:35;;;;;;;1.92;1.73;;;;;;;18.83;74.63;97966.75;4972761;28;20042;-84
2022/07/01 02:16:03;;;;;;;2.65;1.90;;;;;;;18.87;73.95;97981.09;4962410;28;20047;-83
2022/07/01 02:18:32;;;;;;;2.92;2.15;;;;;;;18.77;74.44;98004.13;4971769;28;20046;-86
2022/07/01 02:20:59;;;;;;;2.65;2.17;;;;;;;18.66;74.72;98005.91;4962459;28;20113;-85
2022/07/01 02:23:26;;;;;;;2.10;1.60;;;;;;;18.74;74.14;98013.44;4967671;28;20427;-85
2022/07/01 02:25:52;;;;;;;2.30;2.10;;;;;;;18.60;74.69;98013.03;4969784;28;20043;-85
2022/07/01 02:28:19;;;;;;;3.10;2.03;;;;;;;18.69;74.27;98022.16;4971368;28;20042;-84
2022/07/01 02:30:46;;;;;;;1.70;1.60;;;;;;;18.68;74.40;98015.25;4973579;28;20081;-86
2022/07/01 02:33:12;;;;;;;2.63;2.00;;;;;;;18.78;74.25;98017.19;4972786;28;20043;-86
2022/07/01 02:35:40;;;;;;;2.38;2.13;;;;;;;18.70;74.25;98012.31;4965029;28;20070;-87
2022/07/01 02:38:11;;;;;;;2.53;1.98;;;;;;;18.66;74.69;98019.19;4953683;28;20047;-88
2022/07/01 02:40:39;;;;;;;2.70;2.28;;;;;;;18.64;74.68;98029.25;4971842;28;20461;-84
2022/07/01 02:43:07;;;;;;;2.40;2.20;;;;;;;18.59;75.10;98029.19;4991100;28;20047;-86
2022/07/01 02:45:35;;;;;;;2.08;1.98;;;;;;;18.63;75.82;98028.44;4964230;28;20049;-85
2022/07/01 02:48:01;;;;;;;2.90;1.60;;;;;;;18.74;75.91;98020.59;4962220;28;20051;-83
2022/07/01 02:50:29;;;;;;;2.53;1.65;;;;;;;18.75;76.37;98009.72;4966969;28;20047;-83
2022/07/01 02:52:56;;;;;;;1.58;1.48;;;;;;;18.67;75.99;97988.94;4965817;28;20493;-85
2022/07/01 02:55:23;;;;;;;1.80;1.70;;;;;;;18.64;75.21;97990.19;4961559;28;20051;-84
2022/07/01 02:57:51;;;;;;;1.63;1.52;;;;;;;18.65;75.64;98002.44;4969297;28;20450;-84
2022/07/01 03:00:20;;;;;;;1.73;1.60;;;;;;;18.63;76.35;97995.78;4971003;28;20430;-84
2022/07/01 03:02:48;;;;;;;2.70;1.85;;;;;;;18.63;76.27;97990.47;4965404;28;20117;-84
2022/07/01 03:05:15;;;;;;;1.77;1.52;;;;;;;18.55;76.42;97985.63;4968124;28;20047;-84
2022/07/01 03:07:43;;;;;;;2.10;1.90;;;;;;;18.58;76.30;98003.69;4972405;28;20399;-85
2022/07/01 03:10:10;;;;;;;1.90;1.80;;;;;;;18.45;76.63;97984.47;4971849;28;20047;-85
2022/07/01 03:12:39;;;;;;;3.20;2.10;;;;;;;18.38;76.37;97999.03;4958747;28;20985;-85
2022/07/01 03:15:15;;;;;;;2.30;2.10;;;;;;;18.36;77.74;98011.75;4970805;28;20479;-85
2022/07/01 03:17:45;;;;;;;3.45;2.22;;;;;;;18.12;77.35;98005.94;4966121;28;20042;-85
2022/07/01 03:20:16;;;;;;;2.20;2.05;;;;;;;18.15;77.21;98010.75;4967904;28;20411;-85
2022/07/01 03:22:46;;;;;;;2.60;2.40;;;;;;;18.04;77.48;98014.34;4968922;28;20395;-85
2022/07/01 03:25:13;;;;;;;2.70;2.47;;;;;;;18.03;77.88;98020.69;4964344;28;20110;-84
2022/07/01 03:27:44;;;;;;;2.13;1.98;;;;;;;18.09;77.84;98011.75;4965295;28;20059;-84
2022/07/01 03:30:13;;;;;;;2.72;1.80;;;;;;;18.17;77.70;98005.97;4967005;28;20044;-84
2022/07/01 03:32:40;;;;;;;2.25;1.80;;;;;;;18.11;77.53;97993.72;4969702;28;20090;-83
2022/07/01 03:37:55;;;;;;;1.45;1.35;;;;;;;18.19;78.06;97985.31;4970830;28;20051;-82
2022/07/01 03:40:22;;;;;;;1.25;1.10;;;;;;;18.35;77.33;97991.53;4970570;28;20488;-83
2022/07/01 03:42:49;;;;;;;1.30;1.20;;;;;;;18.44;77.46;97998.00;4969009;28;20101;-83
2022/07/01 03:45:16;;;;;;;1.50;1.40;;;;;;;18.51;76.69;98008.41;4971881;28;20074;-84
2022/07/01 03:47:50;;;;;;;1.85;1.70;;;;;;;18.38;76.55;98005.13;4966739;28;20043;-83
2022/07/01 03:50:20;;;;;;;1.30;1.20;;;;;;;18.50;76.65;97985.56;4969355;28;20047;-82
2022/07/01 03:52:47;;;;;;;1.35;1.25;;;;;;;18.49;77.65;97990.09;4971533;28;20043;-83
2022/07/01 03:55:14;;;;;;;1.58;1.48;;;;;;;18.59;76.94;98021.22;4969856;28;20475;-83
2022/07/01 03:57:40;;;;;;;1.80;1.70;;;;;;;18.45;76.52;98020.84;4970472;28;20453;-84
2022/07/01 04:00:08;;;;;;;3.00;2.42;;;;;;;18.19;77.11;98033.88;4966295;28;20097;-84
2022/07/01 04:02:35;;;;;;;2.20;2.03;;;;;;;18.07;78.20;98029.78;4957657;28;20039;-84
2022/07/01 04:05:02;;;;;;;2.63;2.42;;;;;;;17.83;78.92;98038.00;4962689;28;20572;-83
2022/07/01 04:07:28;;;;;;;4.20;2.70;;;;;;;17.66;80.26;98061.91;4971593;28;20039;-85
2022/07/01 04:09:55;;;;;;;2.40;2.20;;;;;;;17.60;80.04;98072.69;4970165;28;20094;-84
2022/07/01 04:12:22;;;;;;;2.95;2.42;;;;;;;17.51;80.88;98074.13;4969230;28;20347;-85
2022/07/01 04:14:49;;;;;;;2.38;2.17;;;;;;;17.47;81.28;98079.16;4965070;28;20044;-84
2022/07/01 04:17:15;;;;;;;2.60;2.40;;;;;;;17.21;82.52;98067.34;4967219;28;20054;-86
2022/07/01 04:19:42;;;;;;;2.88;2.58;;;;;;;17.24;82.79;98093.38;4968084;28;20046;-84
2022/07/01 04:24:54;;;;;;;3.45;2.90;;;;;;;17.12;82.94;98085.53;4964796;28;20039;-84
2022/07/01 04:27:27;;;;;;;3.15;2.35;;;;;;;16.98;82.70;98078.16;4967832;28;20042;-84
2022/07/01 04:29:53;;;;;;;2.83;2.63;;;;;;;16.99;84.25;98100.94;4974789;28;20050;-86
2022/07/01 04:32:20;;;;;;;1.92;1.77;;;;;;;16.87;84.83;98113.47;4972675;28;20093;-87
2022/07/01 04:34:47;;;;;;;2.65;2.40;;;;;;;16.85;84.47;98118.97;4973708;28;20047;-87
2022/07/01 04:37:14;;;;;;;2.55;2.35;;;;;;;16.93;84.76;98109.84;4975132;28;20101;-85
2022/07/01 04:39:40;;;;;;;2.33;2.13;;;;;;;16.88;85.50;98075.34;4969715;28;20460;-85
2022/07/01 04:42:07;;;;;;;3.28;2.33;;;;;;;16.73;84.72;98083.81;4967439;28;20071;-85
2022/07/01 04:44:37;;;;;;;1.45;1.35;;;;;;;16.79;86.59;98065.16;4985549;28;20094;-82
2022/07/01 04:47:09;;;;;;;1.10;1.10;;;;;;;16.99;88.06;98067.31;4966996;28;20038;-84
2022/07/01 04:49:36;;;;;;;1.35;1.25;;;;;;;17.10;87.52;98078.88;4953974;29;20079;-84
2022/07/01 04:52:03;;;;;;;1.77;1.10;;;;;;;17.11;86.43;98081.28;4959420;28;20098;-83
2022/07/01 04:54:30;;;;;;;1.15;1.15;;;;;;;17.00;86.43;98089.31;4965710;28;20043;-84
2022/07/01 04:56:56;;;;;;;0.88;0.88;;;;;;;17.12;87.38;98077.56;4962748;28;20074;-86
2022/07/01 04:59:23;;;;;;;1.50;1.40;;;;;;;17.23;86.68;98073.25;4969955;28;20245;-87
2022/07/01 05:01:50;;;;;;;1.98;1.88;;;;;;;17.21;84.74;98064.72;4985506;28;20071;-84
2022/07/01 05:04:18;;;;;;;1.70;1.60;;;;;;;17.08;85.46;98046.50;4974208;28;20090;-83
2022/07/01 05:06:46;;;;;;;3.08;2.78;;;;;;;16.99;86.06;98061.22;4972618;28;20045;-82
2022/07/01 05:09:13;;;;;;;3.30;2.85;;;;;;;16.95;86.43;98071.47;4974555;28;20784;-83
2022/07/01 05:11:40;;;;;;;3.47;3.03;;;;;;;16.92;87.86;98079.91;4967266;28;20046;-83
2022/07/01 05:14:07;;;;;;;4.40;3.08;;;;;;;16.82;88.21;98104.38;4991555;28;20755;-83
2022/07/01 05:16:35;;;;;;;3.55;2.42;;;;;;;16.63;87.60;98110.13;4966261;28;20142;-81
2022/07/01 05:21:58;;;;;;;2.30;2.10;;;;;;;16.69;87.87;98128.50;4964323;28;20051;-82
2022/07/01 05:24:30;;;;;;;2.22;1.95;;;;;;;16.72;86.97;98132.53;4967245;28;20529;-83
2022/07/01 05:26:59;;;;;;;4.47;3.13;;;;;;;16.68;87.15;98134.84;4966653;28;20051;-83
2022/07/01 05:29:26;;;;;;;4.05;3.13;;;;;;;16.58;86.90;98135.44;4969728;28;20051;-83
2022/07/01 05:31:53;;;;;;;2.80;2.50;;;;;;;16.69;86.31;98144.38;4985585;28;20105;-86
2022/07/01 05:34:20;;;;;;;2.45;2.25;;;;;;;16.56;85.65;98153.44;4969759;28;20119;-84
2022/07/01 05:36:47;;;;;;;2.80;2.60;;;;;;;16.54;87.09;98155.47;4965275;28;20110;-83
2022/07/01 05:39:14;;;;;;;3.08;2.47;;;;;;;16.47;85.84;98148.72;4964782;28;20101;-84
2022/07/01 05:41:41;;;;;;;2.25;1.92;;;;;;;16.46;85.38;98168.31;4957376;28;20105;-84
2022/07/01 05:44:08;;;;;;;3.55;2.38;;;;;;;16.38;85.03;98171.34;4972537;28;20450;-83
2022/07/01 05:46:36;;;;;;;2.10;1.90;;;;;;;16.43;86.09;98152.88;4969003;28;20054;-84
2022/07/01 05:49:03;;;;;;;2.70;2.50;;;;;;;16.23;85.73;98164.69;4974023;28;20051;-88
2022/07/01 05:51:32;;;;;;;2.47;2.00;;;;;;;16.24;86.69;98166.28;4973633;28;20049;-89
2022/07/01 05:54:01;;;;;;;2.65;2.45;;;;;;;16.23;86.02;98180.56;4964235;28;20447;-86
2022/07/01 05:56:28;;;;;;;2.47;2.10;;;;;;;16.09;85.84;98184.50;4965818;28;20581;-85
2022/07/01 05:59:03;;;;;;;2.40;2.20;;;;;;;15.99;86.24;98179.78;4980998;28;20113;-88
2022/07/01 06:01:29;;;;;;;2.78;1.73;;;;;;;16.08;87.55;98190.03;4968389;28;20077;-90
2022/07/01 06:03:56;;;;;;;2.22;1.63;;;;;;;16.09;88.00;98173.94;4972154;28;20505;-90
2022/07/01 06:06:23;;;;;;;1.95;1.60;;;;;;;16.13;87.30;98185.63;4988712;28;20097;-88
2022/07/01 06:08:53;;;;;;;2.45;1.90;;;;;;;16.07;86.49;98178.63;4968794;28;20603;-89
2022/07/01 06:11:22;;;;;;;2.13;1.70;;;;;;;15.92;85.22;98183.59;4950171;28;20047;-89
2022/07/01 06:13:49;;;;;;;1.67;1.58;;;;;;;15.97;84.64;98196.94;4972153;28;20043;-88
2022/07/01 06:16:15;;;;;;;1.70;1.58;;;;;;;15.95;84.68;98201.66;4961571;28;20046;-91
2022/07/01 06:18:42;;;;;;;1.00;1.00;;;;;;;16.05;85.38;98201.88;4966304;28;20071;-88
2022/07/01 06:21:09;;;;;;;1.45;1.35;;;;;;;15.98;84.28;98225.00;4964193;28;20051;-85
2022/07/01 06:23:37;;;;;;;1.83;1.58;;;;;;;15.82;84.35;98217.75;4967406;28;20113;-87
2022/07/01 06:26:04;;;;;;;1.30;1.20;;;;;;;15.89;84.98;98221.09;4959149;28;20049;-89
2022/07/01 06:28:31;;;;;;;1.40;1.30;;;;;;;15.94;84.75;98210.63;4973762;28;20487;-89
2022/07/01 06:30:58;;;;;;;1.10;1.08;;;;;;;16.13;86.58;98206.00;4966957;28;20454;-88
2022/07/01 06:33:27;;;;;;;1.40;1.20;;;;;;;16.23;84.94;98200.94;4962013;28;20172;-87
2022/07/01 06:35:53;;;;;;;1.40;1.17;;;;;;;16.12;85.21;98205.19;4971966;28;20043;-87
2022/07/01 06:38:20;;;;;;;1.17;1.08;;;;;;;16.14;85.16;98197.84;4963323;28;20546;-85
2022/07/01 06:41:26;;;;;;;1.40;1.30;;;;;;;16.16;85.25;98195.75;4976313;28;20039;-88
2022/07/01 06:43:34;;;;;;;2.20;1.40;;;;;;;16.16;85.67;98206.34;4954420;28;20054;-86
2022/07/01 06:46:02;;;;;;;1.50;1.40;;;;;;;16.18;85.31;98209.56;4982405;28;20058;-90
2022/07/01 06:48:29;;;;;;;1.23;1.13;;;;;;;16.00;85.55;98191.19;4971834;28;20659;-87
2022/07/01 06:50:56;;;;;;;1.63;1.52;;;;;;;15.90;84.51;98201.56;4966583;28;20053;-87
2022/07/01 06:53:22;;;;;;;1.70;1.27;;;;;;;15.95;85.31;98209.56;4961551;28;20411;-85
2022/07/01 06:55:49;;;;;;;1.50;1.40;;;;;;;15.89;85.14;98221.09;4968595;28;20081;-85
2022/07/01 06:58:17;;;;;;;1.20;1.10;;;;;;;15.96;85.44;98222.59;4971981;28;20489;-86
2022/07/01 07:00:44;;;;;;;1.20;1.10;;;;;;;16.00;84.27;98222.91;4961551;28;20097;-88
2022/07/01 07:03:11;;;;;;;1.30;1.20;;;;;;;15.98;85.45;98235.59;4971695;28;20127;-85
2022/07/01 07:05:38;;;;;;;1.83;1.20;;;;;;;15.99;85.77;98243.28;4965784;28;20050;-87
2022/07/01 07:08:05;;;;;;;1.20;1.10;;;;;;;15.91;85.23;98242.84;4962102;28;20055;-85
2022/07/01 07:10:33;;;;;;;1.20;1.10;;;;;;;15.87;85.35;98252.25;4968733;28;20070;-87
2022/07/01 07:12:59;;;;;;;1.55;1.10;;;;;;;15.79;84.91;98253.41;4970165;28;20446;-87
2022/07/01 07:15:26;;;;;;;1.00;0.90;;;;;;;15.82;84.61;98257.41;4971821;28;20534;-85
2022/07/01 07:17:57;;;;;;;0.90;0.90;;;;;;;15.76;84.88;98267.88;4971161;28;20407;-85
2022/07/01 07:20:25;;;;;;;1.05;0.82;;;;;;;15.86;85.14;98263.88;4970583;28;20062;-86
2022/07/01 07:22:52;;;;;;;1.13;1.00;;;;;;;15.97;84.31;98255.13;4964220;28;20074;-88
2022/07/01 07:25:19;;;;;;;0.60;0.60;;;;;;;16.17;84.75;98258.22;4958564;28;20550;-85
2022/07/01 07:27:47;;;;;;;0.63;0.63;;;;;;;16.39;85.70;98257.63;4961922;28;20114;-85
2022/07/01 07:30:14;;;;;;;0.60;0.60;;;;;;;16.45;84.54;98267.28;4962033;28;20364;-87
2022/07/01 07:32:44;;;;;;;0.90;0.90;;;;;;;16.25;83.43;98271.13;4970137;28;20180;-86
2022/07/01 07:35:11;;;;;;;1.55;1.08;;;;;;;16.16;82.69;98269.84;4966149;28;20113;-85
2022/07/01 07:37:38;;;;;;;1.10;1.10;;;;;;;15.96;83.83;98277.34;4961224;28;20047;-84
2022/07/01 07:40:13;;;;;;;0.95;0.95;;;;;;;15.87;83.33;98281.34;4967750;28;20070;-85
2022/07/01 07:42:41;;;;;;;0.80;0.80;;;;;;;15.99;84.53;98277.66;4966414;28;20553;-83
2022/07/01 07:45:08;;;;;;;1.20;0.90;;;;;;;15.98;83.41;98283.19;4963370;28;20054;-88
2022/07/01 07:47:35;;;;;;;0.88;0.88;;;;;;;16.04;84.43;98282.28;4977764;28;20097;-87
2022/07/01 07:50:04;;;;;;;1.00;0.90;;;;;;;16.08;84.50;98285.28;4971262;28;20763;-86
2022/07/01 07:52:31;;;;;;;1.70;0.93;;;;;;;16.11;82.97;98292.75;4963011;28;20047;-86
2022/07/01 07:54:57;;;;;;;1.23;0.90;;;;;;;16.03;82.41;98289.41;4954122;28;20167;-86
2022/07/01 07:57:24;;;;;;;1.00;1.00;;;;;;;15.99;82.24;98279.50;4969710;28;20093;-86
2022/07/01 07:59:51;;;;;;;0.90;0.90;;;;;;;16.05;82.35;98278.59;4975230;28;20524;-86
2022/07/01 08:02:18;;;;;;;1.20;1.10;;;;;;;16.12;82.34;98284.56;4975317;28;20043;-85
2022/07/01 08:04:50;;;;;;;0.80;0.80;;;;;;;16.19;82.10;98285.28;4963872;28;20039;-87
2022/07/01 08:07:17;;;;;;;2.25;1.20;;;;;;;16.09;82.99;98292.97;4965597;28;20090;-87
2022/07/01 08:09:46;;;;;;;1.50;1.30;;;;;;;16.00;83.27;98300.44;4969605;28;20086;-86
2022/07/01 08:12:56;;;;;;;1.92;1.30;;;;;;;15.84;82.88;98301.13;4971504;28;20043;-85
2022/07/01 08:15:24;;;;;;;1.27;1.17;;;;;;;15.74;84.26;98293.75;4968435;28;20091;-84
2022/07/01 08:18:11;;;;;;;1.05;1.00;;;;;;;15.84;84.21;98305.63;4983585;28;20038;-85
2022/07/01 08:20:54;;;;;;;1.35;1.10;;;;;;;15.71;83.35;98310.09;4985722;28;20047;-86
2022/07/01 08:25:04;;;;;;;1.42;0.98;;;;;;;15.78;85.25;98300.19;4971636;28;20035;-82
2022/07/01 08:28:16;;;;;;;1.05;1.05;;;;;;;15.82;84.10;98310.31;4882309;29;20140;-85
2022/07/01 08:31:21;;;;;;;0.88;0.88;;;;;;;15.68;83.66;98325.59;4880322;29;20087;-84
2022/07/01 08:34:12;;;;;;;1.50;1.20;;;;;;;15.68;85.05;98320.28;4893684;29;20048;-84
2022/07/01 08:36:46;;;;;;;1.50;1.40;;;;;;;15.65;83.48;98326.84;4896885;29;20093;-83
2022/07/01 08:39:54;;;;;;;1.60;1.13;;;;;;;15.65;83.94;98318.94;4883763;29;20048;-83
2022/07/01 08:42:29;;;;;;;2.35;1.40;;;;;;;15.79;83.69;98330.91;4938181;28;20125;-84
2022/07/01 08:44:57;;;;;;;2.35;1.50;;;;;;;15.92;82.79;98326.44;4968896;28;20118;-86
2022/07/01 08:47:25;;;;;;;1.50;1.40;;;;;;;15.99;82.84;98332.41;4958951;28;20123;-86
2022/07/01 08:49:52;;;;;;;1.60;1.50;;;;;;;16.14;81.99;98335.44;4970038;28;20068;-85
2022/07/01 08:52:19;;;;;;;1.83;1.30;;;;;;;16.20;81.40;98337.16;4972568;28;20039;-86
2022/07/01 08:54:48;;;;;;;1.20;1.10;;;;;;;16.29;81.99;98349.00;4972231;28;20050;-85
2022/07/01 08:57:21;;;;;;;2.30;1.30;;;;;;;16.44;81.58;98350.41;4969359;28;20434;-87
2022/07/01 09:00:15;;;;;;;2.08;1.30;;;;;;;16.33;81.61;98350.16;4967913;28;20114;-85
2022/07/01 09:02:52;;;;;;;1.83;1.20;;;;;;;16.17;82.29;98366.72;4970931;28;20059;-86
2022/07/01 09:05:20;;;;;;;1.58;1.23;;;;;;;15.96;80.60;98369.91;4964327;28;20039;-88
2022/07/01 09:08:00;;;;;;;1.60;1.13;;;;;;;15.84;82.33;98374.38;4980955;28;20066;-86
2022/07/01 09:10:30;;;;;;;2.00;1.05;;;;;;;16.01;84.81;98378.78;4977688;28;20434;-86
2022/07/01 09:13:07;;;;;;;2.05;1.10;;;;;;;15.92;83.65;98374.03;4961489;28;20065;-88
2022/07/01 09:15:35;;;;;;;0.82;0.82;;;;;;;15.94;83.70;98380.72;4967555;28;20142;-87
2022/07/01 09:18:12;;;;;;;0.70;0.70;;;;;;;16.13;84.82;98381.44;4972155;28;20093;-85
2022/07/01 09:20:50;;;;;;;1.20;1.05;;;;;;;15.99;83.55;98385.31;4985347;28;20039;-85
2022/07/01 09:23:19;;;;;;;1.42;1.10;;;;;;;15.98;83.21;98387.16;4969140;28;20114;-90
2022/07/01 09:25:50;;;;;;;0.90;0.90;;;;;;;15.95;82.21;98394.75;4972511;28;20466;-87
2022/07/01 09:28:32;;;;;;;1.35;0.80;;;;;;;16.13;84.44;98385.91;4981838;28;20065;-88
2022/07/01 09:30:59;;;;;;;1.20;1.10;;;;;;;16.09;83.24;98390.88;4968014;28;20129;-88
2022/07/01 09:33:28;;;;;;;1.30;1.20;;;;;;;16.02;84.07;98395.47;4963192;28;20047;-84
2022/07/01 09:35:57;;;;;;;1.40;1.20;;;;;;;15.81;82.06;98393.34;4963250;28;20043;-86
2022/07/01 09:38:25;;;;;;;1.10;1.10;;;;;;;15.78;83.04;98395.41;4960546;28;20047;-86
2022/07/01 09:41:06;;;;;;;3.47;1.20;;;;;;;15.88;84.95;98399.31;4970825;28;20414;-89
2022/07/01 09:43:35;;;;;;;2.20;1.13;;;;;;;15.87;82.97;98403.81;4969556;28;20494;-85
2022/07/01 09:46:08;;;;;;;2.05;1.00;;;;;;;15.99;84.43;98409.13;4961190;28;20055;-89
2022/07/01 09:48:35;;;;;;;1.38;1.27;;;;;;;15.84;84.89;98412.22;4972900;28;20047;-88
2022/07/01 09:51:05;;;;;;;1.20;1.20;;;;;;;15.95;83.97;98411.44;4971776;28;20047;-88
2022/07/01 09:53:41;;;;;;;1.63;1.00;;;;;;;16.08;82.97;98413.09;4980772;28;20175;-85
2022/07/01 09:56:07;;;;;;;2.15;1.40;;;;;;;16.04;81.46;98403.97;4967071;28;20123;-88
2022/07/01 09:58:37;;;;;;;1.73;1.20;;;;;;;16.15;82.71;98403.19;4972204;28;20054;-85
2022/07/01 10:01:08;;;;;;;1.90;1.30;;;;;;;16.40;82.52;98403.00;4963762;28;20415;-86
2022/07/01 10:03:40;;;;;;;1.65;1.23;;;;;;;16.66;82.09;98404.34;4956734;28;20047;-86
2022/07/01 10:06:07;;;;;;;1.40;1.30;;;;;;;16.56;79.80;98396.22;4988497;28;20047;-84
2022/07/01 10:09:13;;;;;;;1.45;1.23;;;;;;;16.80;82.50;98392.53;4958039;28;20070;-86
2022/07/01 10:12:01;;;;;;;2.05;1.13;;;;;;;16.96;81.84;98391.00;4953257;28;20400;-88
2022/07/01 10:14:30;;;;;;;1.60;1.40;;;;;;;16.96;78.83;98390.19;4972582;28;20423;-84
2022/07/01 10:16:57;;;;;;;1.42;1.20;;;;;;;16.99;79.68;98387.09;4972588;28;20050;-86
2022/07/01 10:19:30;;;;;;;1.30;1.20;;;;;;;16.88;78.71;98385.25;4970640;28;20045;-81
2022/07/01 10:22:27;;;;;;;1.73;1.40;;;;;;;16.99;79.88;98395.84;4965141;28;20448;-81
2022/07/01 10:25:16;;;;;;;1.90;1.58;;;;;;;16.92;79.01;98383.78;4960059;28;20121;-81
2022/07/01 10:27:42;;;;;;;1.50;1.30;;;;;;;16.96;79.15;98384.91;4965070;28;20134;-81
2022/07/01 10:30:14;;;;;;;1.40;1.30;;;;;;;16.91;79.87;98401.50;4964373;28;21323;-82
2022/07/01 10:32:51;;;;;;;1.52;0.93;;;;;;;17.01;81.41;98409.66;4962865;28;20089;-81
2022/07/01 10:35:37;;;;;;;1.40;1.17;;;;;;;16.92;81.75;98412.91;4964300;28;20046;-82
2022/07/01 10:38:11;;;;;;;;;;;;;;;16.82;81.85;98411.66;4957767;28;20050;-82
2022/07/01 10:40:45;;;;;;;1.60;1.50;;;;;;;16.71;80.23;98414.31;4967491;28;19981;-89
2022/07/01 10:43:17;;;;;;;1.30;1.20;;;;;;;16.65;80.93;98404.59;4968400;28;20047;-90
2022/07/01 10:45:54;;;;;;;1.45;1.35;;;;;;;16.54;81.34;98401.72;4972640;28;20661;-84
2022/07/01 10:48:24;;;;;;;1.33;1.15;;;;;;;16.73;83.06;98407.75;4967132;28;20050;-83
2022/07/01 10:50:52;;;;;;;1.00;1.00;;;;;;;16.70;81.08;98389.66;4966836;28;20039;-83
2022/07/01 10:53:52;;;;;;;2.25;1.27;;;;;;;16.85;81.79;98427.09;4982189;28;20046;-83
2022/07/01 10:56:39;;;;;;;2.17;1.33;;;;;;;16.63;80.86;98433.97;4964958;28;20043;-84
2022/07/01 10:59:06;;;;;;;0.98;0.98;;;;;;;16.52;81.06;98437.41;4968003;28;20131;-82
2022/07/01 11:01:33;;;;;;;1.02;1.00;;;;;;;16.38;80.36;98438.69;4963749;28;20434;-82
2022/07/01 11:04:01;;;;;;;1.60;1.50;;;;;;;16.21;81.22;98451.75;4966770;28;20074;-82
2022/07/01 11:06:29;;;;;;;1.50;1.40;;;;;;;16.08;82.19;98455.41;4968325;28;20042;-82
2022/07/01 11:08:56;;;;;;;1.55;1.40;;;;;;;15.97;83.15;98469.41;4965307;28;20085;-80
2022/07/01 11:11:24;;;;;;;1.90;1.70;;;;;;;15.66;83.63;98463.31;4960594;28;20063;-80
2022/07/01 11:13:52;;;;;;;2.40;1.70;;;;;;;15.71;84.78;98475.84;4966357;28;20070;-82
2022/07/01 11:16:18;;;;;;;2.03;1.50;;;;;;;15.62;84.48;98475.34;4968294;28;20046;-81
2022/07/01 11:18:50;;;;;;;2.55;1.40;;;;;;;15.48;84.82;98463.31;4969821;28;20050;-85
2022/07/01 11:21:17;;;;;;;1.08;1.08;;;;;;;15.58;85.91;98466.22;4964172;28;20094;-82
2022/07/01 11:23:54;;;;;;;0.70;0.70;;;;;;;15.84;86.64;98466.94;4959012;28;20051;-81
2022/07/01 11:26:24;;;;;;;1.88;1.10;;;;;;;15.88;85.71;98463.59;4956832;28;20047;-82
2022/07/01 11:28:50;;;;;;;1.40;1.30;;;;;;;15.73;83.30;98471.97;4963344;28;20070;-83
2022/07/01 11:31:32;;;;;;;1.58;1.48;;;;;;;15.60;84.71;98482.69;4976568;28;20138;-82
2022/07/01 11:33:59;;;;;;;1.23;1.10;;;;;;;15.67;85.34;98480.78;4970829;28;20042;-84
2022/07/01 11:39:23;;;;;;;1.00;1.00;;;;;;;15.77;84.99;98467.84;4968450;28;20054;-82
2022/07/01 11:42:06;;;;;;;0.93;0.93;;;;;;;15.91;84.05;98463.19;4969750;28;20039;-82
2022/07/01 11:44:40;;;;;;;0.88;0.88;;;;;;;16.14;84.96;98473.03;4965925;28;20133;-82
2022/07/01 11:47:12;;;;;;;1.00;1.00;;;;;;;16.29;83.92;98483.97;4967970;28;20090;-81
2022/07/01 11:49:48;;;;;;;2.03;1.45;;;;;;;16.16;82.00;98486.03;4968985;28;20043;-80
2022/07/01 11:52:17;;;;;;;1.30;1.20;;;;;;;16.17;83.39;98491.09;4964991;28;20106;-84
2022/07/01 11:54:51;;;;;;;1.35;1.25;;;;;;;15.99;82.41;98486.66;4965671;28;20043;-83
2022/07/01 11:57:24;;;;;;;1.08;1.08;;;;;;;16.02;82.81;98486.22;4975043;28;20043;-84
2022/07/01 11:59:54;;;;;;;1.05;0.80;;;;;;;16.02;84.10;98480.94;4970243;28;20118;-82
2022/07/01 12:02:23;;;;;;;1.00;1.00;;;;;;;16.05;81.49;98482.31;4974017;28;20042;-83